createdAt,value
2023-05-06T00:00:39.873Z,237.67
2023-05-06T00:01:39.876Z,236.72
2023-05-06T00:02:40.020Z,236.78
2023-05-06T00:03:40.089Z,237.73
2023-05-06T00:04:40.077Z,240.36
2023-05-06T00:05:40.014Z,239.27
2023-05-06T00:06:40.059Z,235.05
2023-05-06T00:07:40.083Z,233.06
2023-05-06T00:08:40.105Z,233.26
2023-05-06T00:09:40.140Z,237.10
2023-05-06T00:10:40.189Z,237.59
2023-05-06T00:11:40.215Z,234.16
2023-05-06T00:12:40.251Z,238.96
2023-05-06T00:13:40.277Z,242.14
2023-05-06T00:14:40.311Z,237.56
2023-05-06T00:15:40.361Z,238.84
2023-05-06T00:16:40.486Z,239.27
2023-05-06T00:17:40.409Z,241.05
2023-05-06T00:18:40.401Z,243.64
2023-05-06T00:19:40.504Z,245.82
2023-05-06T00:20:40.490Z,248.21
2023-05-06T00:21:40.512Z,247.99
2023-05-06T00:22:40.553Z,245.12
2023-05-06T00:23:40.592Z,249.06
2023-05-06T00:24:40.603Z,247.78
2023-05-06T00:25:40.661Z,248.82
2023-05-06T00:26:40.695Z,247.49
2023-05-06T00:27:40.704Z,248.99
2023-05-06T00:28:40.742Z,246.79
2023-05-06T00:29:40.785Z,245.61
2023-05-06T00:30:40.842Z,246.24
2023-05-06T00:31:40.950Z,244.73
2023-05-06T00:32:41.029Z,239.83
2023-05-06T00:33:40.962Z,245.21
2023-05-06T00:34:41.001Z,248.27
2023-05-06T00:35:41.039Z,245.76
2023-05-06T00:36:41.052Z,247.93
2023-05-06T00:37:41.071Z,247.72
2023-05-06T00:38:41.096Z,246.62
2023-05-06T00:39:41.130Z,246.96
2023-05-06T00:40:41.151Z,244.09
2023-05-06T00:41:41.184Z,245.84
2023-05-06T00:42:41.228Z,244.84
2023-05-06T00:43:41.254Z,245.24
2023-05-06T00:44:41.272Z,247.60
2023-05-06T00:45:41.342Z,247.61
2023-05-06T00:46:41.355Z,245.04
2023-05-06T00:47:41.407Z,249.56
2023-05-06T00:48:41.395Z,249.73
2023-05-06T00:49:41.443Z,247.72
2023-05-06T00:50:41.465Z,249.43
2023-05-06T00:51:41.500Z,248.10
2023-05-06T00:52:41.548Z,245.23
2023-05-06T00:53:41.552Z,248.55
2023-05-06T00:54:41.583Z,248.51
2023-05-06T00:55:41.708Z,247.21
2023-05-06T00:56:41.684Z,247.84
2023-05-06T00:57:41.723Z,247.48
2023-05-06T00:58:41.742Z,246.80
2023-05-06T00:59:41.757Z,243.97
2023-05-06T01:00:41.819Z,245.29
2023-05-06T01:01:41.946Z,245.95
2023-05-06T01:02:47.541Z,250.00
2023-05-06T01:03:42.995Z,250.14
2023-05-06T01:04:41.881Z,250.39
2023-05-06T01:05:41.843Z,252.10
2023-05-06T01:06:41.856Z,251.74
2023-05-06T01:07:41.866Z,248.50
2023-05-06T01:08:41.855Z,246.06
2023-05-06T01:09:41.846Z,248.74
2023-05-06T01:10:41.817Z,250.00
2023-05-06T01:11:41.931Z,245.71
2023-05-06T01:12:41.856Z,249.22
2023-05-06T01:13:41.802Z,249.51
2023-05-06T01:14:41.808Z,246.62
2023-05-06T01:15:41.787Z,241.44
2023-05-06T01:16:41.866Z,243.86
2023-05-06T01:17:41.892Z,245.40
2023-05-06T01:18:41.891Z,242.59
2023-05-06T01:19:41.972Z,244.66
2023-05-06T01:20:41.987Z,243.78
2023-05-06T01:21:41.991Z,244.28
2023-05-06T01:22:42.070Z,242.59
2023-05-06T01:23:42.072Z,241.30
2023-05-06T01:24:42.091Z,243.31
2023-05-06T01:25:42.252Z,245.56
2023-05-06T01:26:42.271Z,248.24
2023-05-06T01:27:42.337Z,245.45
2023-05-06T01:28:42.294Z,245.96
2023-05-06T01:29:42.327Z,237.43
2023-05-06T01:30:42.465Z,243.97
2023-05-06T01:31:42.408Z,244.33
2023-05-06T01:32:42.474Z,239.61
2023-05-06T01:33:42.474Z,242.43
2023-05-06T01:34:42.496Z,246.77
2023-05-06T01:35:42.532Z,244.06
2023-05-06T01:36:42.584Z,240.07
2023-05-06T01:37:42.646Z,242.29
2023-05-06T01:38:42.677Z,244.97
2023-05-06T01:39:42.740Z,244.92
2023-05-06T01:40:42.765Z,242.37
2023-05-06T01:41:42.791Z,239.32
2023-05-06T01:42:42.875Z,241.86
2023-05-06T01:43:42.966Z,240.46
2023-05-06T01:44:42.959Z,243.24
2023-05-06T01:45:42.994Z,237.86
2023-05-06T01:46:43.043Z,232.56
2023-05-06T01:47:43.141Z,233.73
2023-05-06T01:48:43.129Z,236.12
2023-05-06T01:49:43.177Z,232.13
2023-05-06T01:50:43.221Z,234.24
2023-05-06T01:51:43.266Z,230.37
2023-05-06T01:52:43.338Z,232.33
2023-05-06T01:53:43.364Z,225.67
2023-05-06T01:54:43.390Z,232.04
2023-05-06T01:55:43.434Z,231.44
2023-05-06T01:56:43.454Z,231.45
2023-05-06T01:57:43.513Z,231.76
2023-05-06T01:58:43.532Z,226.60
2023-05-06T01:59:43.595Z,222.34
2023-05-06T02:00:43.642Z,223.81
2023-05-06T02:01:43.739Z,225.38
2023-05-06T02:02:43.809Z,228.37
2023-05-06T02:03:43.775Z,229.89
2023-05-06T02:04:43.814Z,232.98
2023-05-06T02:05:43.851Z,230.14
2023-05-06T02:06:43.883Z,230.81
2023-05-06T02:07:43.940Z,232.14
2023-05-06T02:08:44.002Z,231.36
2023-05-06T02:09:44.029Z,226.64
2023-05-06T02:10:44.059Z,222.34
2023-05-06T02:11:44.115Z,224.20
2023-05-06T02:12:44.193Z,222.43
2023-05-06T02:13:44.197Z,220.66
2023-05-06T02:14:44.260Z,221.42
2023-05-06T02:15:44.360Z,218.53
2023-05-06T02:16:44.348Z,220.44
2023-05-06T02:17:44.419Z,212.76
2023-05-06T02:18:44.451Z,216.27
2023-05-06T02:19:44.506Z,216.71
2023-05-06T02:20:44.535Z,217.74
2023-05-06T02:21:44.596Z,219.64
2023-05-06T02:22:44.619Z,216.07
2023-05-06T02:23:44.678Z,214.81
2023-05-06T02:24:44.717Z,221.90
2023-05-06T02:25:44.756Z,223.35
2023-05-06T02:26:44.834Z,224.06
2023-05-06T02:27:44.872Z,222.96
2023-05-06T02:28:44.916Z,224.87
2023-05-06T02:29:44.943Z,225.33
2023-05-06T02:30:45.012Z,219.79
2023-05-06T02:31:45.124Z,216.61
2023-05-06T02:32:45.147Z,219.34
2023-05-06T02:33:45.170Z,220.06
2023-05-06T02:34:45.190Z,220.21
2023-05-06T02:35:45.218Z,222.81
2023-05-06T02:36:45.268Z,222.61
2023-05-06T02:37:45.305Z,217.26
2023-05-06T02:38:45.435Z,221.29
2023-05-06T02:39:45.405Z,217.07
2023-05-06T02:40:45.464Z,217.19
2023-05-06T02:41:45.507Z,218.75
2023-05-06T02:42:45.637Z,216.54
2023-05-06T02:43:45.626Z,222.54
2023-05-06T02:44:45.676Z,223.94
2023-05-06T02:45:45.779Z,221.20
2023-05-06T02:46:45.776Z,223.86
2023-05-06T02:47:45.886Z,222.11
2023-05-06T02:48:45.877Z,226.37
2023-05-06T02:49:45.921Z,226.54
2023-05-06T02:50:45.960Z,223.69
2023-05-06T02:51:45.995Z,220.22
2023-05-06T02:52:46.061Z,215.47
2023-05-06T02:53:46.125Z,222.37
2023-05-06T02:54:46.189Z,226.75
2023-05-06T02:55:46.223Z,227.97
2023-05-06T02:56:46.383Z,225.75
2023-05-06T02:57:46.311Z,224.91
2023-05-06T02:58:46.368Z,225.46
2023-05-06T02:59:46.469Z,227.97
2023-05-06T03:00:46.505Z,226.54
2023-05-06T03:01:46.527Z,228.60
2023-05-06T03:02:46.637Z,228.28
2023-05-06T03:03:46.655Z,231.14
2023-05-06T03:04:46.690Z,228.43
2023-05-06T03:05:46.725Z,230.82
2023-05-06T03:06:46.782Z,230.17
2023-05-06T03:07:46.822Z,229.63
2023-05-06T03:08:46.866Z,229.79
2023-05-06T03:09:47.019Z,229.89
2023-05-06T03:10:46.949Z,232.90
2023-05-06T03:11:47.015Z,227.19
2023-05-06T03:12:47.098Z,226.98
2023-05-06T03:13:47.105Z,229.92
2023-05-06T03:14:47.161Z,230.45
2023-05-06T03:15:47.207Z,233.17
2023-05-06T03:16:47.266Z,235.35
2023-05-06T03:17:47.349Z,234.09
2023-05-06T03:18:47.361Z,231.73
2023-05-06T03:19:47.492Z,232.58
2023-05-06T03:20:47.476Z,233.18
2023-05-06T03:21:47.564Z,230.41
2023-05-06T03:22:47.569Z,229.74
2023-05-06T03:23:47.633Z,233.19
2023-05-06T03:24:47.682Z,229.55
2023-05-06T03:25:47.754Z,233.70
2023-05-06T03:26:47.774Z,232.93
2023-05-06T03:27:47.845Z,235.02
2023-05-06T03:28:47.904Z,232.15
2023-05-06T03:29:47.926Z,234.28
2023-05-06T03:30:47.990Z,233.91
2023-05-06T03:31:48.035Z,234.01
2023-05-06T03:32:48.118Z,235.88
2023-05-06T03:33:48.100Z,234.62
2023-05-06T03:34:48.144Z,234.00
2023-05-06T03:35:48.325Z,234.46
2023-05-06T03:36:48.260Z,232.73
2023-05-06T03:37:48.292Z,232.31
2023-05-06T03:38:48.323Z,232.55
2023-05-06T03:39:48.369Z,231.47
2023-05-06T03:40:48.431Z,233.83
2023-05-06T03:41:48.465Z,232.41
2023-05-06T03:42:48.520Z,235.57
2023-05-06T03:43:48.565Z,233.64
2023-05-06T03:44:48.621Z,235.54
2023-05-06T03:45:48.698Z,233.45
2023-05-06T03:46:48.701Z,234.27
2023-05-06T03:47:48.769Z,236.29
2023-05-06T03:48:48.773Z,233.23
2023-05-06T03:49:48.843Z,231.65
2023-05-06T03:50:48.870Z,234.66
2023-05-06T03:51:48.957Z,236.02
2023-05-06T03:52:49.022Z,237.36
2023-05-06T03:53:49.023Z,234.67
2023-05-06T03:54:49.087Z,235.53
2023-05-06T03:55:49.126Z,240.10
2023-05-06T03:56:49.189Z,236.66
2023-05-06T03:57:49.221Z,236.25
2023-05-06T03:58:49.282Z,239.79
2023-05-06T03:59:49.278Z,237.17
2023-05-06T04:00:49.346Z,242.06
2023-05-06T04:01:49.458Z,243.01
2023-05-06T04:02:49.473Z,237.49
2023-05-06T04:03:49.537Z,241.13
2023-05-06T04:04:49.538Z,241.66
2023-05-06T04:05:49.580Z,243.09
2023-05-06T04:06:49.645Z,239.41
2023-05-06T04:07:49.691Z,238.77
2023-05-06T04:08:49.746Z,242.51
2023-05-06T04:09:49.817Z,241.34
2023-05-06T04:10:49.850Z,245.74
2023-05-06T04:11:49.929Z,244.29
2023-05-06T04:12:50.066Z,245.09
2023-05-06T04:13:50.027Z,245.47
2023-05-06T04:14:50.087Z,245.56
2023-05-06T04:15:50.178Z,244.19
2023-05-06T04:16:50.200Z,245.79
2023-05-06T04:17:50.309Z,246.47
2023-05-06T04:18:50.319Z,245.83
2023-05-06T04:19:50.389Z,247.64
2023-05-06T04:20:50.433Z,246.71
2023-05-06T04:21:50.505Z,248.98
2023-05-06T04:22:50.538Z,247.59
2023-05-06T04:23:50.649Z,247.73
2023-05-06T04:24:50.663Z,245.13
2023-05-06T04:25:50.702Z,246.95
2023-05-06T04:26:50.729Z,249.38
2023-05-06T04:27:50.786Z,248.27
2023-05-06T04:28:50.851Z,247.18
2023-05-06T04:29:50.931Z,246.83
2023-05-06T04:30:50.971Z,248.26
2023-05-06T04:31:51.046Z,247.35
2023-05-06T04:32:51.102Z,246.47
2023-05-06T04:33:51.166Z,246.14
2023-05-06T04:34:51.208Z,247.41
2023-05-06T04:35:51.264Z,247.77
2023-05-06T04:36:51.326Z,248.52
2023-05-06T04:37:51.379Z,247.22
2023-05-06T04:38:51.431Z,246.27
2023-05-06T04:39:51.563Z,248.51
2023-05-06T04:40:51.519Z,248.01
2023-05-06T04:41:51.574Z,248.87
2023-05-06T04:42:51.621Z,244.89
2023-05-06T04:43:51.693Z,246.63
2023-05-06T04:44:51.753Z,247.20
2023-05-06T04:45:51.791Z,247.29
2023-05-06T04:46:51.833Z,249.74
2023-05-06T04:47:51.883Z,247.32
2023-05-06T04:48:51.911Z,247.13
2023-05-06T04:49:51.962Z,245.18
2023-05-06T04:50:52.026Z,247.36
2023-05-06T04:51:52.095Z,243.74
2023-05-06T04:52:52.173Z,246.21
2023-05-06T04:53:52.262Z,244.43
2023-05-06T04:54:52.264Z,245.23
2023-05-06T04:55:52.426Z,249.12
2023-05-06T04:56:52.377Z,248.54
2023-05-06T04:57:52.485Z,247.93
2023-05-06T04:58:52.511Z,246.60
2023-05-06T04:59:52.576Z,248.90
2023-05-06T05:00:52.620Z,250.00
2023-05-06T05:01:52.682Z,246.70
2023-05-06T05:02:52.850Z,244.92
2023-05-06T05:03:52.796Z,245.66
2023-05-06T05:04:52.802Z,244.53
2023-05-06T05:05:52.861Z,247.71
2023-05-06T05:06:52.905Z,244.16
2023-05-06T05:07:52.977Z,245.01
2023-05-06T05:08:54.356Z,244.98
2023-05-06T05:09:53.089Z,242.52
2023-05-06T05:10:53.131Z,243.80
2023-05-06T05:11:53.299Z,245.05
2023-05-06T05:12:53.318Z,239.66
2023-05-06T05:13:54.748Z,239.71
2023-05-06T05:14:53.257Z,238.37
2023-05-06T05:15:53.246Z,238.69
2023-05-06T05:16:53.297Z,245.09
2023-05-06T05:17:53.273Z,243.18
2023-05-06T05:18:53.210Z,240.41
2023-05-06T05:19:53.237Z,241.78
2023-05-06T05:20:53.207Z,240.70
2023-05-06T05:21:53.190Z,241.24
2023-05-06T05:22:53.199Z,241.41
2023-05-06T05:23:53.181Z,240.80
2023-05-06T05:24:53.202Z,239.57
2023-05-06T05:25:53.177Z,236.35
2023-05-06T05:26:53.172Z,234.50
2023-05-06T05:27:53.148Z,237.16
2023-05-06T05:28:53.192Z,233.34
2023-05-06T05:29:53.144Z,231.97
2023-05-06T05:30:53.232Z,229.84
2023-05-06T05:31:53.136Z,233.22
2023-05-06T05:32:53.183Z,231.50
2023-05-06T05:33:53.152Z,230.67
2023-05-06T05:34:53.114Z,224.37
2023-05-06T05:35:53.111Z,227.67
2023-05-06T05:36:53.129Z,225.56
2023-05-06T05:37:53.089Z,224.33
2023-05-06T05:38:53.115Z,225.56
2023-05-06T05:39:53.091Z,226.67
2023-05-06T05:40:53.099Z,226.94
2023-05-06T05:41:53.113Z,228.02
2023-05-06T05:42:53.097Z,229.22
2023-05-06T05:43:53.144Z,230.50
2023-05-06T05:44:53.036Z,232.78
2023-05-06T05:45:53.053Z,230.83
2023-05-06T05:46:53.053Z,235.05
2023-05-06T05:47:53.062Z,236.18
2023-05-06T05:48:53.060Z,231.28
2023-05-06T05:49:53.009Z,235.20
2023-05-06T05:50:53.021Z,235.98
2023-05-06T05:51:53.014Z,239.33
2023-05-06T05:52:53.011Z,237.48
2023-05-06T05:53:52.982Z,234.86
2023-05-06T05:54:53.016Z,236.67
2023-05-06T05:55:53.745Z,236.29
2023-05-06T05:56:53.103Z,238.56
2023-05-06T05:57:53.103Z,237.74
2023-05-06T05:58:53.149Z,238.72
2023-05-06T05:59:53.388Z,239.31
2023-05-06T06:00:53.274Z,235.88
2023-05-06T06:01:53.256Z,239.53
2023-05-06T06:02:53.410Z,243.66
2023-05-06T06:03:53.558Z,243.41
2023-05-06T06:04:53.443Z,242.96
2023-05-06T06:05:53.431Z,245.65
2023-05-06T06:06:53.466Z,243.51
2023-05-06T06:07:53.501Z,245.19
2023-05-06T06:08:53.590Z,244.03
2023-05-06T06:09:53.661Z,248.23
2023-05-06T06:10:53.697Z,248.18
2023-05-06T06:11:53.749Z,246.56
2023-05-06T06:12:53.781Z,249.87
2023-05-06T06:13:53.828Z,246.27
2023-05-06T06:14:53.852Z,247.19
2023-05-06T06:15:54.004Z,246.38
2023-05-06T06:16:54.018Z,246.50
2023-05-06T06:17:54.201Z,242.22
2023-05-06T06:18:54.096Z,246.47
2023-05-06T06:19:54.125Z,243.81
2023-05-06T06:20:54.165Z,246.09
2023-05-06T06:21:54.167Z,245.46
2023-05-06T06:22:54.224Z,245.15
2023-05-06T06:23:54.345Z,246.04
2023-05-06T06:24:54.331Z,247.04
2023-05-06T06:25:54.457Z,243.93
2023-05-06T06:26:54.472Z,246.86
2023-05-06T06:27:54.514Z,246.62
2023-05-06T06:28:54.592Z,245.05
2023-05-06T06:29:54.662Z,247.11
2023-05-06T06:30:54.711Z,244.55
2023-05-06T06:31:54.733Z,245.65
2023-05-06T06:32:54.790Z,245.36
2023-05-06T06:33:54.811Z,246.80
2023-05-06T06:34:54.867Z,245.91
2023-05-06T06:35:54.881Z,241.55
2023-05-06T06:36:54.908Z,242.41
2023-05-06T06:37:54.977Z,242.98
2023-05-06T06:38:55.020Z,239.88
2023-05-06T06:39:55.063Z,244.46
2023-05-06T06:40:55.141Z,245.06
2023-05-06T06:41:55.183Z,243.39
2023-05-06T06:42:55.224Z,245.24
2023-05-06T06:43:55.292Z,241.44
2023-05-06T06:44:55.352Z,237.32
2023-05-06T06:45:55.429Z,238.50
2023-05-06T06:46:55.477Z,240.92
2023-05-06T06:47:55.680Z,240.69
2023-05-06T06:48:55.552Z,236.73
2023-05-06T06:49:55.607Z,232.32
2023-05-06T06:50:55.671Z,229.79
2023-05-06T06:51:55.700Z,231.41
2023-05-06T06:52:55.774Z,230.78
2023-05-06T06:53:55.791Z,232.41
2023-05-06T06:54:55.849Z,232.69
2023-05-06T06:55:55.884Z,234.41
2023-05-06T06:56:55.951Z,231.79
2023-05-06T06:57:55.976Z,228.21
2023-05-06T06:58:56.049Z,228.13
2023-05-06T06:59:56.125Z,227.41
2023-05-06T07:00:56.148Z,226.02
2023-05-06T07:01:56.150Z,223.01
2023-05-06T07:02:56.233Z,220.46
2023-05-06T07:03:56.353Z,224.13
2023-05-06T07:04:56.297Z,220.14
2023-05-06T07:05:56.328Z,221.77
2023-05-06T07:06:56.398Z,222.19
2023-05-06T07:07:56.438Z,221.62
2023-05-06T07:08:56.459Z,222.37
2023-05-06T07:09:56.523Z,221.01
2023-05-06T07:10:56.562Z,218.69
2023-05-06T07:11:56.588Z,216.00
2023-05-06T07:12:56.698Z,218.68
2023-05-06T07:13:56.666Z,222.78
2023-05-06T07:14:56.675Z,232.51
2023-05-06T07:15:56.686Z,232.53
2023-05-06T07:16:56.772Z,228.61
2023-05-06T07:17:56.739Z,235.88
2023-05-06T07:18:56.757Z,240.02
2023-05-06T07:19:56.733Z,248.35
2023-05-06T07:20:56.757Z,248.12
2023-05-06T07:21:56.771Z,244.16
2023-05-06T07:22:56.793Z,235.77
2023-05-06T07:23:56.762Z,236.92
2023-05-06T07:24:56.796Z,234.38
2023-05-06T07:25:56.805Z,231.34
2023-05-06T07:26:56.812Z,232.85
2023-05-06T07:27:56.850Z,233.72
2023-05-06T07:28:56.864Z,234.45
2023-05-06T07:29:56.875Z,231.14
2023-05-06T07:30:56.960Z,227.74
2023-05-06T07:31:56.957Z,230.90
2023-05-06T07:32:57.058Z,228.84
2023-05-06T07:33:57.055Z,227.51
2023-05-06T07:34:57.100Z,230.55
2023-05-06T07:35:57.191Z,231.24
2023-05-06T07:36:57.247Z,227.96
2023-05-06T07:37:57.246Z,226.29
2023-05-06T07:38:57.247Z,231.20
2023-05-06T07:39:57.285Z,230.28
2023-05-06T07:40:57.346Z,226.50
2023-05-06T07:41:57.407Z,222.66
2023-05-06T07:42:57.415Z,224.88
2023-05-06T07:43:57.453Z,229.46
2023-05-06T07:44:57.483Z,233.27
2023-05-06T07:45:57.678Z,229.92
2023-05-06T07:46:57.753Z,228.69
2023-05-06T07:47:57.727Z,225.26
2023-05-06T07:48:57.709Z,225.56
2023-05-06T07:49:57.779Z,225.60
2023-05-06T07:50:57.829Z,223.26
2023-05-06T07:51:58.001Z,225.73
2023-05-06T07:52:57.917Z,222.09
2023-05-06T07:53:57.977Z,219.32
2023-05-06T07:54:58.007Z,218.88
2023-05-06T07:55:58.058Z,227.25
2023-05-06T07:56:58.064Z,220.77
2023-05-06T07:57:58.117Z,217.59
2023-05-06T07:58:58.176Z,221.23
2023-05-06T07:59:58.213Z,225.46
2023-05-06T08:00:58.263Z,224.71
2023-05-06T08:01:58.315Z,219.91
2023-05-06T08:02:58.448Z,219.02
2023-05-06T08:03:58.455Z,219.60
2023-05-06T08:04:58.426Z,222.58
2023-05-06T08:05:58.470Z,222.22
2023-05-06T08:06:58.508Z,231.31
2023-05-06T08:07:58.665Z,234.67
2023-05-06T08:08:58.616Z,235.14
2023-05-06T08:09:58.701Z,235.70
2023-05-06T08:10:58.788Z,238.27
2023-05-06T08:11:58.815Z,229.95
2023-05-06T08:12:58.915Z,230.48
2023-05-06T08:13:58.871Z,233.05
2023-05-06T08:14:58.901Z,227.76
2023-05-06T08:15:58.992Z,233.76
2023-05-06T08:16:58.992Z,229.61
2023-05-06T08:18:04.427Z,234.66
2023-05-06T08:19:00.007Z,234.83
2023-05-06T08:19:59.032Z,231.58
2023-05-06T08:20:59.007Z,227.59
2023-05-06T08:21:58.985Z,229.43
2023-05-06T08:22:59.000Z,229.41
2023-05-06T08:23:59.092Z,230.69
2023-05-06T08:24:58.967Z,232.38
2023-05-06T08:25:58.978Z,238.15
2023-05-06T08:26:58.977Z,236.42
2023-05-06T08:27:59.047Z,239.29
2023-05-06T08:28:59.058Z,234.92
2023-05-06T08:29:59.090Z,236.69
2023-05-06T08:30:59.131Z,239.25
2023-05-06T08:31:59.154Z,239.49
2023-05-06T08:32:59.259Z,241.70
2023-05-06T08:33:59.238Z,243.04
2023-05-06T08:34:59.245Z,244.07
2023-05-06T08:35:59.286Z,246.41
2023-05-06T08:36:59.313Z,249.68
2023-05-06T08:37:59.335Z,248.53
2023-05-06T08:38:59.354Z,249.02
2023-05-06T08:40:00.017Z,250.00
2023-05-06T08:40:59.455Z,247.56
2023-05-06T08:41:59.493Z,248.67
2023-05-06T08:42:59.530Z,249.79
2023-05-06T08:43:59.561Z,250.00
2023-05-06T08:44:59.624Z,245.61
2023-05-06T08:45:59.755Z,246.62
2023-05-06T08:46:59.765Z,245.43
2023-05-06T08:47:59.834Z,244.14
2023-05-06T08:48:59.841Z,241.50
2023-05-06T08:49:59.880Z,235.27
2023-05-06T08:50:59.951Z,232.54
2023-05-06T08:52:00.008Z,234.89
2023-05-06T08:53:00.055Z,236.03
2023-05-06T08:54:00.148Z,236.60
2023-05-06T08:55:00.237Z,240.41
2023-05-06T08:56:00.269Z,239.49
2023-05-06T08:57:00.257Z,244.79
2023-05-06T08:58:00.327Z,246.27
2023-05-06T08:59:00.394Z,243.09
2023-05-06T09:00:00.435Z,248.84
2023-05-06T09:01:00.558Z,249.36
2023-05-06T09:02:00.519Z,247.21
2023-05-06T09:03:00.575Z,247.24
2023-05-06T09:04:00.560Z,248.64
2023-05-06T09:05:00.568Z,249.91
2023-05-06T09:06:00.608Z,248.37
2023-05-06T09:07:00.646Z,247.68
2023-05-06T09:08:00.656Z,246.41
2023-05-06T09:09:00.688Z,248.52
2023-05-06T09:10:00.713Z,245.28
2023-05-06T09:11:00.728Z,244.37
2023-05-06T09:12:00.814Z,243.28
2023-05-06T09:13:00.832Z,246.20
2023-05-06T09:14:00.833Z,247.29
2023-05-06T09:15:00.889Z,247.00
2023-05-06T09:16:00.917Z,248.72
2023-05-06T09:17:01.044Z,248.82
2023-05-06T09:18:01.034Z,245.77
2023-05-06T09:19:01.010Z,242.67
2023-05-06T09:20:01.033Z,240.77
2023-05-06T09:21:01.114Z,245.62
2023-05-06T09:22:01.083Z,249.16
2023-05-06T09:23:01.120Z,246.18
2023-05-06T09:24:01.151Z,247.78
2023-05-06T09:25:01.200Z,248.87
2023-05-06T09:26:01.219Z,248.07
2023-05-06T09:27:01.247Z,249.54
2023-05-06T09:28:01.353Z,245.58
2023-05-06T09:29:01.308Z,246.31
2023-05-06T09:30:01.356Z,249.03
2023-05-06T09:31:01.476Z,247.42
2023-05-06T09:32:01.389Z,248.21
2023-05-06T09:33:01.451Z,245.79
2023-05-06T09:34:01.456Z,246.93
2023-05-06T09:35:01.505Z,246.78
2023-05-06T09:36:01.498Z,247.10
2023-05-06T09:37:01.550Z,248.13
2023-05-06T09:38:01.569Z,245.76
2023-05-06T09:39:01.578Z,249.27
2023-05-06T09:40:01.662Z,249.15
2023-05-06T09:41:01.703Z,249.40
2023-05-06T09:42:01.774Z,241.81
2023-05-06T09:43:01.736Z,245.31
2023-05-06T09:44:01.949Z,241.39
2023-05-06T09:45:07.925Z,239.23
2023-05-06T09:46:02.846Z,239.33
2023-05-06T09:47:01.823Z,234.68
2023-05-06T09:48:01.905Z,233.95
2023-05-06T09:49:01.819Z,232.49
2023-05-06T09:50:01.830Z,232.00
2023-05-06T09:51:01.786Z,223.87
2023-05-06T09:52:01.881Z,223.49
2023-05-06T09:53:01.773Z,224.50
2023-05-06T09:54:01.804Z,221.50
2023-05-06T09:55:01.812Z,222.43
2023-05-06T09:56:01.843Z,219.76
2023-05-06T09:57:01.903Z,218.71
2023-05-06T09:58:01.937Z,229.00
2023-05-06T09:59:01.991Z,229.65
2023-05-06T10:00:02.048Z,224.67
2023-05-06T10:01:02.088Z,225.03
2023-05-06T10:02:02.191Z,229.29
2023-05-06T10:03:02.318Z,228.51
2023-05-06T10:04:02.407Z,227.31
2023-05-06T10:05:02.445Z,225.10
2023-05-06T10:06:02.371Z,227.73
2023-05-06T10:07:02.373Z,228.35
2023-05-06T10:08:02.421Z,220.68
2023-05-06T10:09:02.503Z,218.05
2023-05-06T10:10:02.568Z,227.69
2023-05-06T10:11:02.574Z,226.47
2023-05-06T10:12:02.606Z,223.37
2023-05-06T10:13:02.741Z,213.15
2023-05-06T10:14:02.694Z,216.22
2023-05-06T10:15:02.744Z,223.73
2023-05-06T10:16:02.828Z,227.40
2023-05-06T10:17:02.805Z,230.15
2023-05-06T10:18:02.860Z,226.26
2023-05-06T10:19:02.892Z,230.42
2023-05-06T10:20:02.950Z,235.93
2023-05-06T10:21:02.981Z,241.49
2023-05-06T10:22:04.486Z,243.01
2023-05-06T10:23:03.195Z,240.58
2023-05-06T10:24:03.234Z,242.07
2023-05-06T10:25:03.280Z,239.60
2023-05-06T10:26:03.318Z,237.66
2023-05-06T10:27:03.334Z,242.40
2023-05-06T10:28:05.492Z,241.16
2023-05-06T10:29:03.370Z,240.79
2023-05-06T10:30:03.364Z,239.18
2023-05-06T10:31:03.356Z,238.08
2023-05-06T10:32:03.532Z,238.33
2023-05-06T10:33:03.377Z,235.61
2023-05-06T10:34:03.329Z,242.24
2023-05-06T10:35:03.332Z,244.83
2023-05-06T10:36:03.328Z,240.79
2023-05-06T10:37:03.327Z,241.41
2023-05-06T10:38:03.328Z,243.17
2023-05-06T10:39:03.292Z,242.03
2023-05-06T10:40:03.313Z,237.72
2023-05-06T10:41:03.308Z,238.88
2023-05-06T10:42:03.280Z,239.20
2023-05-06T10:43:03.272Z,235.11
2023-05-06T10:44:03.264Z,231.29
2023-05-06T10:45:03.274Z,237.28
2023-05-06T10:46:03.336Z,240.30
2023-05-06T10:47:03.244Z,240.88
2023-05-06T10:48:03.374Z,241.88
2023-05-06T10:49:03.233Z,240.08
2023-05-06T10:50:03.240Z,237.81
2023-05-06T10:51:03.221Z,240.01
2023-05-06T10:52:03.210Z,241.65
2023-05-06T10:53:03.218Z,233.87
2023-05-06T10:54:03.186Z,229.94
2023-05-06T10:55:03.298Z,237.94
2023-05-06T10:56:03.181Z,238.68
2023-05-06T10:57:03.163Z,237.00
2023-05-06T10:58:03.170Z,238.08
2023-05-06T10:59:03.161Z,230.92
2023-05-06T11:00:03.163Z,231.20
2023-05-06T11:01:03.210Z,229.59
2023-05-06T11:02:03.173Z,228.23
2023-05-06T11:03:03.203Z,224.60
2023-05-06T11:04:03.233Z,229.11
2023-05-06T11:05:03.125Z,221.25
2023-05-06T11:06:03.103Z,222.03
2023-05-06T11:07:03.083Z,227.50
2023-05-06T11:08:03.095Z,228.46
2023-05-06T11:09:03.089Z,226.55
2023-05-06T11:10:03.079Z,220.35
2023-05-06T11:11:03.090Z,218.25
2023-05-06T11:12:03.063Z,230.22
2023-05-06T11:13:03.056Z,225.24
2023-05-06T11:14:03.030Z,218.91
2023-05-06T11:15:03.050Z,223.84
2023-05-06T11:16:03.018Z,212.79
2023-05-06T11:17:03.079Z,220.11
2023-05-06T11:18:03.053Z,221.77
2023-05-06T11:19:03.020Z,211.43
2023-05-06T11:20:03.003Z,222.14
2023-05-06T11:21:03.478Z,225.93
2023-05-06T11:22:02.987Z,224.33
2023-05-06T11:23:02.970Z,221.64
2023-05-06T11:24:02.987Z,223.08
2023-05-06T11:25:03.007Z,218.59
2023-05-06T11:26:03.029Z,213.33
2023-05-06T11:27:03.046Z,210.02
2023-05-06T11:28:03.057Z,213.09
2023-05-06T11:29:03.084Z,214.12
2023-05-06T11:30:03.117Z,211.19
2023-05-06T11:31:03.186Z,205.12
2023-05-06T11:32:03.168Z,202.14
2023-05-06T11:33:05.245Z,200.65
2023-05-06T11:34:03.204Z,193.13
2023-05-06T11:35:03.255Z,201.52
2023-05-06T11:36:03.321Z,195.95
2023-05-06T11:37:03.276Z,181.92
2023-05-06T11:38:03.334Z,187.69
2023-05-06T11:39:04.733Z,189.87
2023-05-06T11:40:03.326Z,193.16
2023-05-06T11:41:03.342Z,180.40
2023-05-06T11:42:03.359Z,186.85
2023-05-06T11:43:03.375Z,181.78
2023-05-06T11:44:03.387Z,184.56
2023-05-06T11:45:03.408Z,190.06
2023-05-06T11:46:03.463Z,195.80
2023-05-06T11:47:03.431Z,193.72
2023-05-06T11:48:03.494Z,193.85
2023-05-06T11:49:03.443Z,198.47
2023-05-06T11:50:03.434Z,194.30
2023-05-06T11:51:03.471Z,192.49
2023-05-06T11:52:03.562Z,190.89
2023-05-06T11:53:03.495Z,185.91
2023-05-06T11:54:03.516Z,192.05
2023-05-06T11:55:03.569Z,195.10
2023-05-06T11:56:03.519Z,195.30
2023-05-06T11:57:03.527Z,189.52
2023-05-06T11:58:03.528Z,189.67
2023-05-06T11:59:03.526Z,182.45
2023-05-06T12:00:03.554Z,188.86
2023-05-06T12:01:03.563Z,193.12
2023-05-06T12:02:03.550Z,190.43
2023-05-06T12:03:03.610Z,189.49
2023-05-06T12:04:03.705Z,183.11
2023-05-06T12:05:03.675Z,188.96
2023-05-06T12:06:03.576Z,186.97
2023-05-06T12:07:03.591Z,188.51
2023-05-06T12:08:06.310Z,191.08
2023-05-06T12:09:03.584Z,191.27
2023-05-06T12:10:03.581Z,191.52
2023-05-06T12:11:03.569Z,191.91
2023-05-06T12:12:03.548Z,184.43
2023-05-06T12:13:03.605Z,187.85
2023-05-06T12:14:03.544Z,187.19
2023-05-06T12:15:03.580Z,184.55
2023-05-06T12:16:03.547Z,181.77
2023-05-06T12:17:03.512Z,184.19
2023-05-06T12:18:03.569Z,178.80
2023-05-06T12:19:03.513Z,179.11
2023-05-06T12:20:03.494Z,174.62
2023-05-06T12:21:03.492Z,184.50
2023-05-06T12:22:03.494Z,187.33
2023-05-06T12:23:03.476Z,177.58
2023-05-06T12:24:03.615Z,186.66
2023-05-06T12:25:03.489Z,184.40
2023-05-06T12:26:03.445Z,185.40
2023-05-06T12:27:03.440Z,185.15
2023-05-06T12:28:03.435Z,184.15
2023-05-06T12:29:03.425Z,180.53